createdAt,value
2019-04-21T00:01:59.479Z,23.47
2019-04-21T00:04:50.731Z,22.13
2019-04-21T00:07:44.977Z,19.97
2019-04-21T00:10:29.713Z,23.40
2019-04-21T00:13:08.033Z,20.60
2019-04-21T00:15:48.877Z,21.27
2019-04-21T00:19:03.210Z,24.53
2019-04-21T00:22:08.559Z,23.93
2019-04-21T00:24:56.910Z,25.83
2019-04-21T00:27:58.872Z,107.15
2019-04-21T00:31:10.420Z,125.67
2019-04-21T00:33:42.692Z,46.13
2019-04-21T00:36:39.896Z,27.53
2019-04-21T00:39:45.037Z,27.63
2019-04-21T00:42:34.550Z,25.87
2019-04-21T00:45:31.393Z,30.50
2019-04-21T00:48:45.653Z,22.17
2019-04-21T00:51:33.429Z,24.30
2019-04-21T00:55:01.714Z,22.87
2019-04-21T00:57:43.085Z,25.95
2019-04-21T01:00:51.283Z,24.63
2019-04-21T01:07:15.424Z,26.67
2019-04-21T01:09:56.056Z,22.23
2019-04-21T01:12:41.800Z,21.47
2019-04-21T01:15:35.213Z,21.53
2019-04-21T01:18:09.090Z,23.83
2019-04-21T01:20:33.878Z,52.80
2019-04-21T01:23:16.751Z,24.57
2019-04-21T01:26:16.765Z,22.63
2019-04-21T01:29:01.638Z,31.80
2019-04-21T01:31:48.453Z,23.03
2019-04-21T01:34:33.185Z,19.67
2019-04-21T01:37:12.827Z,19.07
2019-04-21T01:40:04.723Z,18.90
2019-04-21T01:42:39.434Z,19.20
2019-04-21T01:45:26.580Z,18.33
2019-04-21T01:48:06.519Z,16.20
2019-04-21T01:50:49.685Z,14.83
2019-04-21T01:53:58.959Z,16.13
2019-04-21T01:57:01.817Z,23.65
2019-04-21T01:59:39.631Z,19.33
2019-04-21T02:02:32.585Z,18.87
2019-04-21T02:05:18.857Z,13.33
2019-04-21T02:08:01.081Z,14.40
2019-04-21T02:10:46.213Z,12.43
2019-04-21T02:13:24.673Z,14.10
2019-04-21T02:16:14.073Z,13.10
2019-04-21T02:18:52.624Z,11.60
2019-04-21T02:21:36.672Z,11.10
2019-04-21T02:24:35.143Z,14.45
2019-04-21T02:27:06.473Z,75.60
2019-04-21T02:29:55.201Z,27.33
2019-04-21T02:32:48.014Z,14.53
2019-04-21T02:38:23.673Z,13.60
2019-04-21T02:40:57.909Z,12.77
2019-04-21T02:46:46.650Z,9.63
2019-04-21T02:49:56.598Z,9.90
2019-04-21T02:52:53.910Z,11.12
2019-04-21T02:55:42.015Z,9.63
2019-04-21T03:04:57.306Z,14.03
2019-04-21T03:10:28.693Z,10.27
2019-04-21T03:13:14.043Z,10.60
2019-04-21T03:16:09.732Z,9.93
2019-04-21T03:18:54.238Z,10.03
2019-04-21T03:21:28.973Z,10.80
2019-04-21T03:24:49.083Z,12.80
2019-04-21T03:27:09.692Z,9.53
2019-04-21T03:29:44.747Z,9.57
2019-04-21T03:33:13.042Z,8.60
2019-04-21T03:35:43.831Z,8.20
2019-04-21T03:40:50.670Z,9.47
2019-04-21T03:46:23.115Z,9.67
2019-04-21T03:49:10.630Z,10.33
2019-04-21T03:51:48.721Z,21.62
2019-04-21T03:59:11.576Z,15.07
2019-04-21T04:02:38.812Z,12.17
2019-04-21T04:06:03.941Z,79.35
2019-04-21T04:09:19.446Z,24.03
2019-04-21T04:18:46.608Z,10.40
2019-04-21T04:21:28.735Z,15.20
2019-04-21T04:24:08.865Z,25.30
2019-04-21T04:29:42.312Z,24.27
2019-04-21T04:32:23.454Z,22.70
2019-04-21T04:38:27.697Z,53.07
2019-04-21T04:41:28.897Z,30.73
2019-04-21T04:44:26.589Z,19.93
2019-04-21T04:52:37.884Z,19.00
2019-04-21T04:55:26.323Z,11.83
2019-04-21T04:58:25.087Z,9.50
2019-04-21T05:01:06.186Z,14.93
2019-04-21T05:03:49.480Z,13.90
2019-04-21T05:06:42.491Z,15.37
2019-04-21T05:09:14.794Z,18.07
2019-04-21T05:11:55.990Z,35.87
2019-04-21T05:14:46.186Z,27.67
2019-04-21T05:20:11.159Z,11.23
2019-04-21T05:22:51.851Z,8.63
2019-04-21T05:25:30.722Z,8.38
2019-04-21T05:28:12.692Z,8.43
2019-04-21T05:31:19.510Z,9.03
2019-04-21T05:34:17.964Z,12.85
2019-04-21T05:37:24.503Z,8.10
2019-04-21T05:40:18.332Z,9.83
2019-04-21T05:43:20.203Z,9.63
2019-04-21T05:46:18.434Z,10.97
2019-04-21T05:49:06.818Z,10.83
2019-04-21T05:52:05.449Z,9.93
2019-04-21T05:57:46.697Z,11.00
2019-04-21T06:00:46.622Z,11.68
2019-04-21T06:03:28.254Z,8.20
2019-04-21T06:06:13.582Z,7.77
2019-04-21T06:11:55.539Z,9.33
2019-04-21T06:14:52.087Z,7.03
2019-04-21T06:20:15.388Z,8.93
2019-04-21T06:22:56.831Z,8.80
2019-04-21T06:25:48.652Z,8.60
2019-04-21T06:28:41.682Z,7.60
2019-04-21T06:34:11.378Z,10.03
2019-04-21T06:37:18.271Z,6.30
2019-04-21T06:40:01.894Z,10.78
2019-04-21T06:42:32.489Z,87.45
2019-04-21T06:45:36.669Z,47.03
2019-04-21T06:51:27.593Z,8.80
2019-04-21T06:54:34.184Z,11.53
2019-04-21T06:57:25.440Z,10.30
2019-04-21T07:00:06.355Z,8.47
2019-04-21T07:02:52.142Z,7.93
2019-04-21T07:08:34.467Z,17.93
2019-04-21T07:11:21.659Z,9.23
2019-04-21T07:14:27.312Z,6.60
2019-04-21T07:22:45.985Z,6.30
2019-04-21T07:25:29.632Z,7.27
2019-04-21T07:28:20.947Z,7.33
2019-04-21T07:31:07.941Z,6.10
2019-04-21T07:33:53.781Z,6.10
2019-04-21T07:36:35.452Z,5.97
2019-04-21T07:39:00.189Z,9.58
2019-04-21T07:41:36.704Z,8.50
2019-04-21T07:44:25.765Z,6.83
2019-04-21T07:47:50.718Z,9.38
2019-04-21T07:51:38.995Z,7.80
2019-04-21T07:54:19.997Z,8.97
2019-04-21T07:56:41.894Z,7.73
2019-04-21T08:00:07.113Z,6.70
2019-04-21T08:02:40.739Z,7.60
2019-04-21T08:05:28.037Z,7.07
2019-04-21T08:08:15.933Z,5.90
2019-04-21T08:11:06.905Z,6.30
2019-04-21T08:13:55.104Z,7.12
2019-04-21T08:16:53.408Z,7.27
2019-04-21T08:19:32.469Z,6.93
2019-04-21T08:22:48.150Z,8.20
2019-04-21T08:25:54.873Z,7.43
2019-04-21T08:28:27.582Z,6.93
2019-04-21T08:31:32.659Z,8.23
2019-04-21T08:34:13.893Z,7.07
2019-04-21T08:37:05.483Z,6.33
2019-04-21T08:40:02.073Z,7.13
2019-04-21T08:42:55.107Z,5.80
2019-04-21T08:45:49.390Z,5.80
2019-04-21T08:48:52.637Z,5.93
2019-04-21T08:51:43.718Z,6.17
2019-04-21T08:54:38.663Z,8.07
2019-04-21T08:57:48.863Z,8.50
2019-04-21T09:00:58.985Z,7.87
2019-04-21T09:04:26.231Z,7.57
2019-04-21T09:07:21.336Z,11.40
2019-04-21T09:09:57.420Z,7.83
2019-04-21T09:12:40.466Z,7.90
2019-04-21T09:15:31.325Z,7.50
2019-04-21T09:18:10.191Z,8.33
2019-04-21T09:21:04.620Z,8.77
2019-04-21T09:24:26.638Z,7.40
2019-04-21T09:27:14.279Z,10.47
2019-04-21T09:29:47.916Z,9.27
2019-04-21T09:32:34.864Z,8.30
2019-04-21T09:35:18.358Z,9.00
2019-04-21T09:38:18.458Z,8.30
2019-04-21T09:40:56.097Z,15.10
2019-04-21T09:43:43.614Z,12.23
2019-04-21T09:46:20.879Z,12.80
2019-04-21T09:49:05.821Z,13.63
2019-04-21T09:52:00.473Z,11.30
2019-04-21T09:54:56.442Z,9.63
2019-04-21T09:57:47.998Z,13.57
2019-04-21T10:00:27.261Z,11.67
2019-04-21T10:03:11.668Z,9.73
2019-04-21T10:05:51.864Z,13.50
2019-04-21T10:08:32.331Z,14.83
2019-04-21T10:11:16.353Z,13.73
2019-04-21T10:14:07.473Z,20.63
2019-04-21T10:17:13.054Z,22.20
2019-04-21T10:19:55.089Z,21.75
2019-04-21T10:22:41.373Z,21.43
2019-04-21T10:25:22.909Z,12.73
2019-04-21T10:28:01.437Z,11.13
2019-04-21T10:30:43.104Z,9.90
2019-04-21T10:33:22.298Z,8.90
2019-04-21T10:36:35.114Z,10.90
2019-04-21T10:39:24.026Z,10.13
2019-04-21T10:42:19.513Z,13.13
2019-04-21T10:45:07.643Z,26.10
2019-04-21T10:47:47.217Z,17.37
2019-04-21T10:50:32.939Z,23.63
2019-04-21T10:53:36.809Z,21.07
2019-04-21T10:56:30.711Z,16.17
2019-04-21T10:59:20.460Z,16.73
2019-04-21T11:05:14.455Z,15.80
2019-04-21T11:08:10.007Z,19.10
2019-04-21T11:13:56.806Z,22.65
2019-04-21T11:17:14.260Z,16.53
2019-04-21T11:20:51.164Z,16.77
2019-04-21T11:23:38.932Z,33.13
2019-04-21T11:26:37.973Z,19.97
2019-04-21T11:29:21.242Z,18.77
2019-04-21T11:32:05.296Z,28.60
2019-04-21T11:34:46.954Z,22.23
2019-04-21T11:37:38.154Z,45.20
2019-04-21T11:40:42.215Z,31.73
2019-04-21T11:43:28.826Z,59.00
2019-04-21T11:46:42.484Z,42.20
2019-04-21T11:49:34.840Z,32.70
2019-04-21T11:52:31.238Z,35.08
2019-04-21T11:55:20.587Z,24.33
2019-04-21T11:59:09.986Z,21.80
2019-04-21T12:02:17.308Z,212.90
2019-04-21T12:04:48.063Z,263.70
2019-04-21T12:07:47.551Z,104.40
2019-04-21T12:10:39.725Z,50.23
2019-04-21T12:13:28.080Z,44.10
2019-04-21T12:19:27.899Z,30.67
2019-04-21T12:22:25.345Z,28.63
2019-04-21T12:25:07.152Z,21.60
2019-04-21T12:27:56.104Z,27.43
2019-04-21T12:31:45.499Z,23.93
2019-04-21T12:34:37.438Z,22.17
2019-04-21T12:37:28.933Z,20.23
2019-04-21T12:40:10.822Z,24.47
2019-04-21T12:42:56.808Z,39.37
2019-04-21T12:49:29.715Z,29.90
2019-04-21T12:55:48.006Z,34.10
2019-04-21T13:22:44.321Z,134.40
2019-04-21T13:29:06.344Z,49.17
2019-04-21T13:32:45.365Z,42.88
2019-04-21T13:37:35.210Z,27.30
2019-04-21T13:38:32.345Z,38.53
2019-04-21T13:45:02.457Z,27.33
2019-04-21T14:18:10.939Z,14.30
2019-04-21T14:58:35.039Z,15.40
2019-04-21T15:01:49.553Z,15.53
2019-04-21T15:04:57.662Z,15.23
2019-04-21T15:34:45.129Z,12.47
2019-04-21T15:48:55.181Z,207.20
2019-04-21T15:52:31.787Z,129.00
2019-04-21T15:55:50.804Z,47.17
2019-04-21T15:59:14.605Z,26.60
2019-04-21T16:02:36.760Z,16.03
2019-04-21T16:05:30.749Z,14.37
2019-04-21T16:08:52.511Z,17.63
2019-04-21T16:11:46.938Z,16.67
2019-04-21T16:15:16.552Z,15.53
2019-04-21T16:18:45.817Z,15.07
2019-04-21T16:22:26.470Z,13.60
2019-04-21T16:25:10.638Z,15.50
2019-04-21T16:28:01.421Z,13.33
2019-04-21T16:30:42.546Z,14.23
2019-04-21T16:33:25.139Z,14.83
2019-04-21T16:36:09.600Z,17.77
2019-04-21T16:38:53.615Z,15.17
2019-04-21T16:41:40.283Z,13.50
2019-04-21T16:44:21.024Z,13.70
2019-04-21T16:47:07.636Z,13.83
2019-04-21T16:49:49.870Z,13.77
2019-04-21T16:52:38.385Z,15.30
2019-04-21T16:55:28.800Z,18.03
2019-04-21T16:58:38.785Z,17.90
2019-04-21T17:01:27.645Z,16.32
2019-04-21T17:04:08.649Z,15.97
2019-04-21T17:06:53.223Z,14.77
2019-04-21T17:09:32.954Z,15.33
2019-04-21T17:12:24.054Z,15.33
2019-04-21T17:15:21.122Z,20.37
2019-04-21T17:18:22.823Z,21.30
2019-04-21T17:20:58.935Z,20.65
2019-04-21T17:23:40.716Z,21.03
2019-04-21T17:26:39.419Z,19.97
2019-04-21T17:29:18.647Z,23.02
2019-04-21T17:32:07.429Z,17.23
2019-04-21T17:35:12.264Z,16.70
2019-04-21T17:38:00.249Z,16.97
2019-04-21T17:40:49.807Z,16.27
2019-04-21T17:43:49.804Z,15.67
2019-04-21T17:46:45.608Z,13.73
2019-04-21T17:49:23.622Z,14.45
2019-04-21T17:52:23.100Z,12.97
2019-04-21T17:55:19.770Z,13.13
2019-04-21T17:58:21.719Z,11.33
2019-04-21T18:03:58.845Z,10.43
2019-04-21T18:06:35.213Z,9.43
2019-04-21T18:09:24.532Z,8.47
2019-04-21T18:12:01.963Z,8.70
2019-04-21T18:14:24.300Z,9.95
2019-04-21T18:17:06.843Z,8.73
2019-04-21T18:19:57.117Z,9.73
2019-04-21T18:22:58.379Z,10.43
2019-04-21T18:25:47.434Z,10.53
2019-04-21T18:28:22.910Z,9.77
2019-04-21T18:31:10.178Z,8.47
2019-04-21T18:34:06.116Z,9.40
2019-04-21T18:36:50.241Z,9.47
2019-04-21T18:39:57.404Z,11.17
2019-04-21T18:42:52.958Z,10.17
2019-04-21T18:46:08.831Z,10.23
2019-04-21T18:48:43.952Z,15.72
2019-04-21T18:51:43.489Z,14.10
2019-04-21T18:54:41.397Z,17.53
2019-04-21T18:57:17.229Z,13.77
2019-04-21T18:59:51.324Z,12.07
2019-04-21T19:02:36.742Z,13.13
2019-04-21T19:05:15.525Z,15.60
2019-04-21T19:08:10.273Z,15.60
2019-04-21T19:10:56.434Z,14.97
2019-04-21T19:14:15.381Z,12.10
2019-04-21T19:16:50.965Z,14.58
2019-04-21T19:19:41.444Z,12.17
2019-04-21T19:22:19.833Z,13.17
2019-04-21T19:24:56.619Z,15.57
2019-04-21T19:27:31.132Z,12.67
2019-04-21T19:33:00.786Z,12.93
2019-04-21T19:35:19.442Z,11.88
2019-04-21T19:38:08.236Z,12.83
2019-04-21T19:40:59.258Z,12.43
2019-04-21T19:43:45.911Z,13.72
2019-04-21T19:46:23.675Z,12.57
2019-04-21T19:49:10.689Z,12.80
2019-04-21T19:51:46.241Z,11.40
2019-04-21T19:54:27.721Z,10.10
2019-04-21T19:57:02.884Z,10.53
2019-04-21T19:59:52.056Z,10.37
2019-04-21T20:02:32.277Z,11.50
2019-04-21T20:05:20.463Z,14.53
2019-04-21T20:08:11.344Z,12.53
2019-04-21T20:10:55.599Z,11.80
2019-04-21T20:13:48.754Z,11.20
2019-04-21T20:16:18.982Z,10.77
2019-04-21T20:18:51.177Z,10.70
2019-04-21T20:21:31.345Z,10.50
2019-04-21T20:24:15.052Z,9.90
2019-04-21T20:27:00.072Z,10.23
2019-04-21T20:29:48.795Z,13.80
2019-04-21T20:32:30.536Z,14.37
2019-04-21T20:35:25.121Z,13.77
2019-04-21T20:38:04.675Z,12.45
2019-04-21T20:40:41.301Z,11.23
2019-04-21T20:43:38.666Z,11.10
2019-04-21T20:46:17.179Z,10.80
2019-04-21T20:49:00.167Z,10.33
2019-04-21T20:51:42.516Z,11.03
2019-04-21T20:54:26.006Z,11.13
2019-04-21T20:57:12.603Z,11.37
2019-04-21T20:59:43.939Z,11.47
2019-04-21T21:02:37.172Z,10.00
2019-04-21T21:05:05.290Z,10.73
2019-04-21T21:07:57.027Z,10.93
2019-04-21T21:10:35.741Z,10.43
2019-04-21T21:13:20.449Z,10.20
2019-04-21T21:16:10.796Z,9.43
2019-04-21T21:21:28.131Z,10.33
2019-04-21T21:24:08.709Z,10.20
2019-04-21T21:26:54.953Z,11.43
2019-04-21T21:29:45.154Z,9.20
2019-04-21T21:35:00.893Z,10.90
2019-04-21T21:37:43.958Z,10.03
2019-04-21T21:40:26.768Z,9.70
2019-04-21T21:42:51.246Z,9.73
2019-04-21T21:45:37.694Z,9.90
2019-04-21T21:48:28.878Z,10.47
2019-04-21T21:51:04.224Z,9.97
2019-04-21T21:53:38.174Z,10.13
2019-04-21T21:56:14.641Z,11.03
2019-04-21T21:58:55.247Z,10.80
2019-04-21T22:01:45.510Z,12.75
2019-04-21T22:04:26.357Z,12.57
2019-04-21T22:07:07.247Z,16.23
2019-04-21T22:09:46.285Z,15.43
2019-04-21T22:12:25.852Z,16.03
2019-04-21T22:15:10.867Z,17.27
2019-04-21T22:18:07.525Z,17.03
2019-04-21T22:20:47.501Z,17.03
2019-04-21T22:23:34.014Z,18.35
2019-04-21T22:26:05.364Z,16.93
2019-04-21T22:28:45.590Z,18.48
2019-04-21T22:31:31.555Z,16.93
2019-04-21T22:34:14.099Z,17.57
2019-04-21T22:37:12.488Z,18.23
2019-04-21T22:39:53.110Z,17.90
2019-04-21T22:42:33.212Z,17.73
2019-04-21T22:45:37.578Z,18.87
2019-04-21T22:48:23.611Z,19.30
2019-04-21T22:51:19.173Z,22.22
2019-04-21T22:53:55.772Z,20.67
2019-04-21T22:56:50.412Z,20.63
2019-04-21T22:59:22.904Z,19.37
2019-04-21T23:02:13.684Z,19.80
2019-04-21T23:04:54.953Z,19.87
2019-04-21T23:07:41.430Z,19.67
2019-04-21T23:10:25.310Z,22.10
2019-04-21T23:13:13.382Z,46.80
2019-04-21T23:15:57.275Z,68.63
2019-04-21T23:18:46.403Z,40.60
2019-04-21T23:21:30.455Z,25.50
2019-04-21T23:24:26.218Z,22.87
2019-04-21T23:26:56.166Z,19.47
2019-04-21T23:29:52.645Z,19.93
2019-04-21T23:32:24.123Z,18.20
2019-04-21T23:35:06.187Z,20.50
2019-04-21T23:37:44.607Z,20.47
2019-04-21T23:40:23.300Z,18.10
2019-04-21T23:43:09.653Z,23.83
2019-04-21T23:45:48.714Z,24.03
2019-04-21T23:48:40.507Z,25.45
2019-04-21T23:51:21.632Z,24.70
2019-04-21T23:53:57.414Z,24.77
2019-04-21T23:56:40.896Z,23.93
2019-04-21T23:59:20.601Z,24.57
